Time;durP1;ratioP1;P1;durP2;ratioP2;P2;SDS_P1;SDS_P2;PMS_P1;PMS_P2;Temp;Humidity;BMP_temperature;BMP_pressure;BME280_temperature;BME280_humidity;BME280_pressure;Samples;Min_cycle;Max_cycle;Signal;HPM_P1;HPM_P2
2022/06/15 00:01:02;;;;;;;5.55;3.40;;;16.40;99.90;;;;;;5029814;28;20137;-65
2022/06/15 00:03:33;;;;;;;7.95;3.67;;;16.40;99.90;;;;;;5031007;28;20055;-65
2022/06/15 00:06:24;;;;;;;4.57;3.40;;;16.40;99.90;;;;;;5033998;28;20580;-64
2022/06/15 00:08:54;;;;;;;5.93;3.47;;;16.40;99.90;;;;;;5025183;28;20354;-64
2022/06/15 00:11:28;;;;;;;7.85;3.50;;;16.40;99.90;;;;;;5027236;28;20416;-65
2022/06/15 00:14:00;;;;;;;7.13;4.00;;;16.30;99.90;;;;;;5028364;28;20067;-66
2022/06/15 00:16:28;;;;;;;7.00;3.80;;;16.30;99.90;;;;;;5030744;28;20132;-65
2022/06/15 00:18:55;;;;;;;5.63;3.47;;;16.30;99.90;;;;;;5030132;28;20113;-65
2022/06/15 00:21:23;;;;;;;6.25;3.70;;;16.20;99.90;;;;;;5029928;28;20045;-65
2022/06/15 00:23:51;;;;;;;6.45;3.70;;;16.20;99.90;;;;;;5030105;28;20362;-65
2022/06/15 00:26:18;;;;;;;8.13;3.80;;;16.10;99.90;;;;;;5030608;28;20045;-65
2022/06/15 00:28:45;;;;;;;7.93;3.45;;;16.10;99.90;;;;;;5028724;28;20049;-65
2022/06/15 00:31:13;;;;;;;5.53;3.42;;;16.10;99.90;;;;;;5009560;28;20065;-65
2022/06/15 00:33:40;;;;;;;8.63;4.00;;;16.00;99.90;;;;;;5030113;28;20033;-65
2022/06/15 00:36:10;;;;;;;8.23;4.00;;;16.00;99.90;;;;;;5037934;28;20155;-65
2022/06/15 00:38:40;;;;;;;5.57;3.65;;;16.00;99.90;;;;;;5017469;28;20048;-65
2022/06/15 00:41:15;;;;;;;7.47;4.00;;;16.00;99.90;;;;;;5028965;28;20054;-64
2022/06/15 00:43:51;;;;;;;6.72;3.42;;;16.00;99.90;;;;;;5017102;28;20038;-64
2022/06/15 00:46:27;;;;;;;7.28;4.03;;;16.00;99.90;;;;;;5030717;28;20069;-65
2022/06/15 00:49:01;;;;;;;8.98;4.20;;;16.00;99.90;;;;;;5019300;28;20049;-64
2022/06/15 00:51:29;;;;;;;8.05;3.53;;;15.90;99.90;;;;;;5031633;28;20489;-64
2022/06/15 00:53:58;;;;;;;6.57;3.63;;;15.90;99.90;;;;;;5030642;28;20136;-64
2022/06/15 00:56:29;;;;;;;7.22;3.88;;;15.90;99.90;;;;;;5030999;28;20124;-64
2022/06/15 00:59:00;;;;;;;7.10;3.50;;;15.80;99.90;;;;;;5040350;28;20159;-64
2022/06/15 01:01:27;;;;;;;7.85;3.92;;;15.80;99.90;;;;;;5031472;28;20056;-64
2022/06/15 01:03:58;;;;;;;7.03;3.78;;;15.70;99.90;;;;;;5030506;28;20049;-64
2022/06/15 01:06:48;;;;;;;7.25;4.70;;;15.70;99.90;;;;;;5031658;28;20500;-64
2022/06/15 01:09:24;;;;;;;7.30;4.80;;;15.60;99.90;;;;;;5027290;28;20214;-64
2022/06/15 01:12:17;;;;;;;6.10;4.00;;;15.50;99.90;;;;;;5024860;28;20448;-64
2022/06/15 01:14:50;;;;;;;6.03;3.80;;;15.50;99.90;;;;;;5024768;28;20076;-64
2022/06/15 01:17:56;;;;;;;6.47;3.90;;;15.40;99.90;;;;;;5030179;28;20425;-64
2022/06/15 01:20:51;;;;;;;5.93;3.85;;;15.40;99.90;;;;;;5033912;28;20038;-64
2022/06/15 01:23:57;;;;;;;7.40;3.72;;;15.40;99.90;;;;;;5032327;28;20140;-64
2022/06/15 01:26:33;;;;;;;6.90;3.67;;;15.30;99.90;;;;;;5035560;28;20060;-64
2022/06/15 01:29:15;;;;;;;8.23;4.07;;;15.30;99.90;;;;;;5034264;28;20456;-64
2022/06/15 01:31:42;;;;;;;;;;;15.30;99.90;;;;;;5029056;28;20037;-64
2022/06/15 01:34:31;;;;;;;5.38;3.70;;;15.30;99.90;;;;;;5026755;28;20307;-64
2022/06/15 01:37:09;;;;;;;7.40;3.75;;;15.20;99.90;;;;;;5028076;28;20041;-64
2022/06/15 01:39:53;;;;;;;6.65;3.67;;;15.20;99.90;;;;;;5027186;28;20095;-65
2022/06/15 01:42:42;;;;;;;7.00;3.72;;;15.10;99.90;;;;;;5035998;28;20064;-64
2022/06/15 01:45:15;;;;;;;6.80;4.00;;;15.10;99.90;;;;;;5035011;28;20579;-65
2022/06/15 01:47:46;;;;;;;6.18;3.65;;;15.10;99.90;;;;;;5019677;28;20546;-64
2022/06/15 01:50:28;;;;;;;6.25;3.72;;;15.00;99.90;;;;;;5030344;28;20057;-64
2022/06/15 01:53:12;;;;;;;5.72;3.55;;;14.90;99.90;;;;;;5035860;28;20417;-64
2022/06/15 01:55:53;;;;;;;6.30;3.80;;;14.90;99.90;;;;;;5020468;28;20053;-64
2022/06/15 01:58:24;;;;;;;7.63;3.55;;;14.90;99.90;;;;;;5026367;28;20041;-65
2022/06/15 02:01:11;;;;;;;7.38;4.07;;;14.90;99.90;;;;;;5019493;28;20425;-64
2022/06/15 02:03:48;;;;;;;6.38;3.75;;;14.80;99.90;;;;;;5042080;28;20048;-64
2022/06/15 02:06:36;;;;;;;6.28;3.72;;;14.80;99.90;;;;;;5033988;28;20086;-65
2022/06/15 02:09:29;;;;;;;7.80;4.13;;;14.70;99.90;;;;;;5034291;28;20038;-64
2022/06/15 02:12:01;;;;;;;5.70;3.78;;;14.70;99.90;;;;;;5030292;28;20099;-65
2022/06/15 02:14:38;;;;;;;8.23;4.00;;;14.70;99.90;;;;;;5027268;28;20489;-64
2022/06/15 02:17:12;;;;;;;7.18;4.13;;;14.70;99.90;;;;;;5030976;28;20083;-65
2022/06/15 02:19:52;;;;;;;7.90;4.80;;;14.60;99.90;;;;;;5013469;28;20063;-65
2022/06/15 02:22:29;;;;;;;5.63;3.80;;;14.70;99.90;;;;;;5027437;28;20463;-64
2022/06/15 02:25:03;;;;;;;7.05;4.20;;;14.70;99.90;;;;;;5026899;28;20590;-65
2022/06/15 02:27:33;;;;;;;7.63;4.15;;;14.70;99.90;;;;;;5027391;28;20040;-64
2022/06/15 02:30:06;;;;;;;8.85;4.35;;;14.70;99.90;;;;;;5026190;28;20052;-64
2022/06/15 02:32:41;;;;;;;7.80;3.97;;;14.70;99.90;;;;;;5032431;28;20051;-64
2022/06/15 02:35:08;;;;;;;6.88;4.05;;;14.70;99.90;;;;;;5036009;28;20133;-64
2022/06/15 02:37:36;;;;;;;7.72;3.67;;;14.70;99.90;;;;;;5035033;28;20045;-64
2022/06/15 02:40:04;;;;;;;6.38;3.20;;;14.60;99.90;;;;;;5027731;28;20151;-64
2022/06/15 02:42:40;;;;;;;6.43;4.13;;;14.60;99.90;;;;;;5044204;28;20041;-64
2022/06/15 02:45:22;;;;;;;8.10;3.80;;;14.50;99.90;;;;;;5042179;28;20357;-64
2022/06/15 02:47:53;;;;;;;6.47;4.00;;;14.50;99.90;;;;;;5014810;28;20144;-64
2022/06/15 02:50:27;;;;;;;6.07;3.67;;;14.40;99.90;;;;;;5048461;28;20520;-64
2022/06/15 02:53:04;;;;;;;7.45;4.05;;;14.50;99.90;;;;;;5032251;28;20084;-64
2022/06/15 02:55:34;;;;;;;6.13;3.95;;;14.40;99.90;;;;;;5038335;28;20442;-64
2022/06/15 02:58:07;;;;;;;7.05;3.95;;;14.40;99.90;;;;;;5033928;28;20208;-64
2022/06/15 03:00:42;;;;;;;5.88;4.05;;;14.30;99.90;;;;;;5039748;28;20049;-64
2022/06/15 03:03:13;;;;;;;9.20;4.25;;;14.30;99.90;;;;;;5047097;28;20547;-64
2022/06/15 03:05:47;;;;;;;9.20;4.60;;;14.30;99.90;;;;;;5033296;28;20571;-66
2022/06/15 03:08:18;;;;;;;7.32;4.50;;;14.30;99.90;;;;;;5033544;28;20546;-66
2022/06/15 03:10:49;;;;;;;;;;;14.20;99.90;;;;;;5032533;28;20038;-66
2022/06/15 03:13:17;;;;;;;8.15;4.00;;;14.20;99.90;;;;;;5032991;28;19935;-64
2022/06/15 03:15:45;;;;;;;7.82;3.88;;;14.20;99.90;;;;;;5035204;28;20038;-65
2022/06/15 03:18:12;;;;;;;7.90;4.20;;;14.30;99.90;;;;;;5015599;28;20048;-65
2022/06/15 03:20:40;;;;;;;9.02;4.00;;;14.20;99.90;;;;;;5035553;28;20055;-65
2022/06/15 03:23:09;;;;;;;7.32;4.05;;;14.20;99.90;;;;;;5031299;28;20060;-65
2022/06/15 03:25:37;;;;;;;8.10;3.92;;;14.20;99.90;;;;;;5037565;28;20474;-65
2022/06/15 03:28:06;;;;;;;8.15;4.50;;;14.20;99.90;;;;;;5035579;28;20134;-65
2022/06/15 03:30:33;;;;;;;8.32;4.78;;;14.10;99.90;;;;;;5032162;28;20417;-65
2022/06/15 03:33:05;;;;;;;6.95;4.40;;;14.10;99.90;;;;;;5035069;28;20087;-65
2022/06/15 03:35:39;;;;;;;6.40;4.07;;;14.20;99.90;;;;;;5035003;28;20124;-65
2022/06/15 03:38:18;;;;;;;6.03;4.37;;;14.10;99.90;;;;;;5035737;28;20520;-65
2022/06/15 03:41:10;;;;;;;9.07;4.32;;;14.10;99.90;;;;;;5034287;28;20148;-66
2022/06/15 03:43:38;;;;;;;9.50;4.40;;;14.10;99.90;;;;;;5032652;28;20403;-66
2022/06/15 03:46:06;;;;;;;6.78;4.32;;;14.20;99.90;;;;;;5032656;28;20428;-65
2022/06/15 03:48:37;;;;;;;6.85;4.38;;;14.20;99.90;;;;;;5032531;28;20112;-65
2022/06/15 03:51:05;;;;;;;7.03;4.45;;;14.30;99.90;;;;;;5032723;28;20037;-65
2022/06/15 03:53:42;;;;;;;7.05;4.38;;;14.30;99.90;;;;;;5038549;28;20041;-65
2022/06/15 03:56:09;;;;;;;7.82;4.10;;;14.40;99.90;;;;;;5039006;28;20038;-65
2022/06/15 03:58:37;;;;;;;9.30;4.13;;;14.50;99.90;;;;;;5038969;28;20044;-65
2022/06/15 04:01:04;;;;;;;8.90;4.38;;;14.50;99.90;;;;;;5035500;28;20092;-65
2022/06/15 04:03:32;;;;;;;8.35;4.05;;;14.60;99.90;;;;;;5042499;28;20053;-65
2022/06/15 04:06:26;;;;;;;7.13;4.15;;;14.70;99.90;;;;;;5029076;28;20141;-65
2022/06/15 04:08:53;;;;;;;7.30;4.10;;;14.80;99.90;;;;;;5029867;28;20099;-65
2022/06/15 04:14:18;;;;;;;6.38;3.75;;;14.90;99.90;;;;;;5047066;28;20083;-65
2022/06/15 04:16:55;;;;;;;7.63;4.13;;;15.10;99.90;;;;;;5035140;28;20057;-65
2022/06/15 04:19:36;;;;;;;6.82;4.47;;;15.10;99.90;;;;;;5033995;28;20555;-65
2022/06/15 04:22:04;;;;;;;8.02;4.80;;;15.20;99.90;;;;;;5041661;28;20114;-65
2022/06/15 04:24:34;;;;;;;7.65;4.60;;;15.30;99.90;;;;;;5043482;28;20052;-65
2022/06/15 04:27:02;;;;;;;7.65;4.15;;;15.30;99.90;;;;;;5047409;28;20099;-65
2022/06/15 04:29:29;;;;;;;6.22;4.22;;;15.40;99.90;;;;;;5029749;28;20048;-65
2022/06/15 04:31:58;;;;;;;6.85;3.90;;;15.50;99.90;;;;;;5031686;28;20562;-65
2022/06/15 04:34:28;;;;;;;9.00;4.55;;;15.60;99.90;;;;;;5033028;28;20041;-66
2022/06/15 04:36:56;;;;;;;8.32;5.00;;;15.60;99.90;;;;;;5017703;28;20083;-65
2022/06/15 04:39:24;;;;;;;6.90;4.60;;;15.60;99.90;;;;;;5016019;28;20099;-65
2022/06/15 04:41:52;;;;;;;8.60;4.65;;;15.60;99.90;;;;;;5032621;28;20095;-65
2022/06/15 04:44:19;;;;;;;11.02;4.93;;;15.60;99.90;;;;;;5030629;28;20051;-65
2022/06/15 04:46:52;;;;;;;6.50;4.57;;;15.60;99.90;;;;;;5027017;28;20107;-65
2022/06/15 04:49:22;;;;;;;7.03;4.25;;;15.60;99.90;;;;;;5040783;28;20049;-65
2022/06/15 04:51:52;;;;;;;8.27;4.78;;;15.60;99.90;;;;;;5026501;28;20140;-64
2022/06/15 04:54:21;;;;;;;8.98;4.53;;;15.70;99.90;;;;;;5017619;28;20382;-64
2022/06/15 04:56:53;;;;;;;11.73;4.93;;;15.80;99.90;;;;;;5017668;28;20526;-64
2022/06/15 04:59:20;;;;;;;7.78;4.50;;;15.80;99.90;;;;;;5033079;28;20308;-65
2022/06/15 05:01:50;;;;;;;8.45;4.53;;;15.90;99.90;;;;;;5029897;28;20041;-64
2022/06/15 05:04:19;;;;;;;9.63;4.57;;;16.00;99.90;;;;;;5017243;28;20049;-65
2022/06/15 05:06:46;;;;;;;8.00;4.63;;;16.10;99.90;;;;;;5027145;28;20068;-64
2022/06/15 05:09:14;;;;;;;11.27;4.60;;;16.20;99.90;;;;;;5027412;28;20037;-65
2022/06/15 05:11:44;;;;;;;6.90;4.07;;;16.30;99.90;;;;;;5028484;28;20365;-64
2022/06/15 05:14:13;;;;;;;8.02;4.50;;;16.30;99.90;;;;;;5027871;28;20095;-64
2022/06/15 05:16:44;;;;;;;12.90;4.70;;;16.40;99.90;;;;;;5028509;28;20060;-65
2022/06/15 05:19:16;;;;;;;9.80;4.30;;;16.40;99.90;;;;;;5027603;28;20368;-65
2022/06/15 05:21:44;;;;;;;7.93;4.35;;;16.50;99.90;;;;;;5017504;28;20085;-64
2022/06/15 05:24:15;;;;;;;8.43;4.70;;;16.60;99.90;;;;;;5040977;28;20048;-65
2022/06/15 05:26:51;;;;;;;8.65;4.32;;;16.60;99.90;;;;;;5032825;28;20450;-65
2022/06/15 05:29:18;;;;;;;9.85;4.28;;;16.70;99.90;;;;;;5036347;28;20495;-64
2022/06/15 05:31:52;;;;;;;8.40;4.40;;;16.80;99.90;;;;;;5029327;28;20047;-64
2022/06/15 05:34:19;;;;;;;11.48;4.60;;;16.80;99.90;;;;;;5030272;28;20263;-66
2022/06/15 05:36:47;;;;;;;10.30;4.10;;;16.90;99.90;;;;;;5039068;28;20575;-65
2022/06/15 05:39:14;;;;;;;9.55;5.88;;;17.00;99.90;;;;;;5031107;28;20068;-65
2022/06/15 05:41:44;;;;;;;12.85;5.57;;;17.10;99.90;;;;;;5029204;28;20132;-64
2022/06/15 05:46:47;;;;;;;10.73;5.07;;;17.30;99.90;;;;;;5033242;28;20456;-65
2022/06/15 05:49:26;;;;;;;11.05;4.97;;;17.40;99.90;;;;;;5032279;28;20465;-66
2022/06/15 05:51:55;;;;;;;13.25;4.82;;;17.40;99.90;;;;;;5034375;28;20111;-64
2022/06/15 05:54:25;;;;;;;7.38;4.25;;;17.50;99.90;;;;;;5039472;28;20029;-64
2022/06/15 05:56:52;;;;;;;11.18;6.10;;;17.60;99.90;;;;;;5039086;28;20380;-64
2022/06/15 05:59:19;;;;;;;9.75;5.93;;;17.70;99.90;;;;;;5040802;28;20110;-64
2022/06/15 06:01:47;;;;;;;11.20;5.03;;;17.80;99.90;;;;;;5036202;28;20508;-64
2022/06/15 06:04:16;;;;;;;8.38;4.68;;;17.80;99.90;;;;;;5031000;28;20056;-65
2022/06/15 06:06:44;;;;;;;6.47;3.80;;;17.90;99.90;;;;;;5031335;28;20045;-65
2022/06/15 06:09:11;;;;;;;8.32;4.10;;;17.90;99.90;;;;;;5029374;28;20045;-64
2022/06/15 06:11:39;;;;;;;7.35;4.50;;;18.00;99.90;;;;;;5030101;28;20144;-64
2022/06/15 06:14:08;;;;;;;8.35;4.47;;;18.10;99.90;;;;;;5036322;28;20047;-64
2022/06/15 06:16:35;;;;;;;12.68;4.38;;;18.20;99.90;;;;;;5028671;28;20436;-65
2022/06/15 06:19:03;;;;;;;11.18;4.20;;;18.30;99.90;;;;;;5030322;28;20300;-65
2022/06/15 06:21:30;;;;;;;10.75;4.65;;;18.40;99.90;;;;;;5037969;28;20137;-66
2022/06/15 06:23:57;;;;;;;9.57;4.30;;;18.50;99.90;;;;;;5030366;28;20135;-66
2022/06/15 06:26:33;;;;;;;13.95;6.35;;;18.60;99.90;;;;;;5030509;28;20041;-66
2022/06/15 06:29:01;;;;;;;9.70;5.72;;;18.70;99.90;;;;;;5028840;28;20584;-66
2022/06/15 06:31:29;;;;;;;12.98;7.47;;;18.80;99.90;;;;;;5023637;28;20113;-64
2022/06/15 06:33:57;;;;;;;10.23;5.63;;;18.90;99.90;;;;;;5028209;28;20451;-66
2022/06/15 06:36:38;;;;;;;8.13;4.50;;;19.00;99.90;;;;;;5037751;28;20051;-65
2022/06/15 06:39:11;;;;;;;7.20;4.18;;;19.10;99.90;;;;;;5029924;28;20065;-66
2022/06/15 06:41:39;;;;;;;10.88;4.45;;;19.20;99.90;;;;;;5029935;28;20037;-66
2022/06/15 06:44:07;;;;;;;11.18;4.20;;;19.30;99.90;;;;;;5030446;28;20060;-66
2022/06/15 06:46:35;;;;;;;9.40;4.28;;;19.40;99.90;;;;;;5028435;28;20057;-66
2022/06/15 06:49:07;;;;;;;8.10;4.00;;;19.50;99.90;;;;;;5031108;28;20049;-66
2022/06/15 06:51:35;;;;;;;8.13;4.22;;;19.50;99.90;;;;;;5029059;28;20038;-65
2022/06/15 06:54:08;;;;;;;10.50;4.18;;;19.70;99.90;;;;;;5030023;28;20049;-65
2022/06/15 06:56:36;;;;;;;6.82;4.43;;;19.70;99.90;;;;;;5030305;28;20068;-65
2022/06/15 06:59:08;;;;;;;10.50;4.05;;;19.90;99.90;;;;;;5029200;28;20041;-65
2022/06/15 07:01:37;;;;;;;10.30;4.40;;;19.90;99.90;;;;;;5029079;28;20049;-65
2022/06/15 07:04:05;;;;;;;10.07;4.55;;;20.10;99.90;;;;;;5028561;28;20061;-66
2022/06/15 07:06:33;;;;;;;9.27;4.10;;;20.20;99.90;;;;;;5029731;28;20532;-65
2022/06/15 07:09:01;;;;;;;7.35;4.57;;;20.30;99.90;;;;;;5031101;28;20632;-65
2022/06/15 07:11:29;;;;;;;7.03;4.20;;;20.40;99.90;;;;;;5029750;28;20097;-66
2022/06/15 07:13:56;;;;;;;7.63;3.70;;;20.50;99.90;;;;;;5030557;28;20049;-66
2022/06/15 07:16:23;;;;;;;7.53;3.92;;;20.50;99.90;;;;;;5030913;28;20095;-66
2022/06/15 07:18:51;;;;;;;8.95;3.88;;;20.70;99.90;;;;;;5040629;28;20036;-65
2022/06/15 07:21:22;;;;;;;9.93;4.00;;;20.70;99.90;;;;;;5040158;28;20041;-65
2022/06/15 07:23:51;;;;;;;11.13;4.10;;;20.80;99.90;;;;;;5043294;28;20048;-65
2022/06/15 07:26:21;;;;;;;7.13;4.10;;;20.80;99.90;;;;;;5039428;28;20369;-66
2022/06/15 07:28:49;;;;;;;8.50;3.80;;;21.00;99.90;;;;;;5034538;28;20041;-66
2022/06/15 07:31:38;;;;;;;7.43;3.60;;;21.10;99.90;;;;;;5025621;28;20037;-65
2022/06/15 07:34:06;;;;;;;8.23;4.07;;;21.20;99.90;;;;;;5028286;28;20397;-64
2022/06/15 07:36:36;;;;;;;6.47;3.58;;;21.30;99.90;;;;;;5032867;28;20141;-65
2022/06/15 07:39:04;;;;;;;5.35;3.50;;;21.40;99.90;;;;;;5029621;28;20071;-65
2022/06/15 07:41:33;;;;;;;6.93;3.78;;;21.40;99.90;;;;;;5030210;28;20041;-65
2022/06/15 07:44:00;;;;;;;7.53;4.03;;;21.50;99.90;;;;;;5029695;28;20033;-65
2022/06/15 07:46:28;;;;;;;11.43;3.75;;;21.60;99.90;;;;;;5032149;28;20037;-65
2022/06/15 07:51:46;;;;;;;8.25;3.95;;;21.70;99.90;;;;;;5038931;28;20041;-65
2022/06/15 07:54:16;;;;;;;7.30;3.75;;;21.80;99.90;;;;;;5029279;28;20057;-65
2022/06/15 07:56:45;;;;;;;9.32;4.20;;;21.90;99.90;;;;;;5029211;28;20056;-64
2022/06/15 07:59:13;;;;;;;7.35;3.30;;;22.00;99.90;;;;;;5044752;28;20057;-65
2022/06/15 08:01:42;;;;;;;7.65;3.63;;;22.00;99.90;;;;;;5033881;28;20465;-65
2022/06/15 08:04:10;;;;;;;7.32;3.80;;;22.10;99.90;;;;;;5025019;28;20060;-65
2022/06/15 08:06:41;;;;;;;6.75;3.65;;;22.20;99.90;;;;;;5022633;28;20415;-65
2022/06/15 08:09:10;;;;;;;8.27;4.00;;;22.20;99.90;;;;;;5028024;28;20519;-65
2022/06/15 08:11:37;;;;;;;8.18;3.67;;;22.30;99.90;;;;;;5030015;28;20465;-65
2022/06/15 08:14:05;;;;;;;7.25;3.67;;;22.40;99.90;;;;;;5029800;28;20044;-65
2022/06/15 08:16:34;;;;;;;6.63;3.53;;;22.50;99.90;;;;;;5023798;28;20107;-65
2022/06/15 08:19:03;;;;;;;8.25;3.90;;;22.60;99.90;;;;;;5027105;28;20038;-65
2022/06/15 08:21:36;;;;;;;6.70;3.55;;;22.80;99.90;;;;;;5022366;28;20509;-66
2022/06/15 08:24:04;;;;;;;6.40;3.47;;;22.80;99.90;;;;;;5035418;28;20076;-65
2022/06/15 08:26:37;;;;;;;11.05;4.00;;;22.90;99.90;;;;;;5036921;28;20069;-65
2022/06/15 08:29:09;;;;;;;6.03;3.50;;;23.00;99.90;;;;;;5032819;28;20365;-64
2022/06/15 08:31:37;;;;;;;9.98;3.78;;;23.10;99.90;;;;;;5027725;28;20503;-65
2022/06/15 08:34:05;;;;;;;12.43;3.13;;;23.20;99.90;;;;;;5029549;28;20053;-65
2022/06/15 08:36:34;;;;;;;6.85;3.67;;;23.30;99.90;;;;;;5036875;28;20041;-65
2022/06/15 08:39:01;;;;;;;9.38;3.65;;;23.40;99.90;;;;;;5030028;28;20052;-65
2022/06/15 08:41:35;;;;;;;6.03;3.30;;;23.50;99.90;;;;;;5017968;28;20084;-65
2022/06/15 08:44:36;;;;;;;7.78;3.47;;;23.60;99.90;;;;;;5033405;28;20079;-65
2022/06/15 08:47:31;;;;;;;7.68;3.60;;;23.80;99.90;;;;;;5037099;28;20052;-64
2022/06/15 08:50:27;;;;;;;8.40;3.45;;;23.90;99.90;;;;;;5023819;28;20053;-64
2022/06/15 08:53:27;;;;;;;6.22;3.20;;;24.00;99.90;;;;;;5034100;28;20053;-65
2022/06/15 08:56:25;;;;;;;7.88;3.10;;;24.10;99.90;;;;;;5033687;28;20080;-65
2022/06/15 08:59:30;;;;;;;5.18;2.83;;;24.20;99.90;;;;;;5040104;28;20057;-64
2022/06/15 09:02:21;;;;;;;4.55;2.75;;;24.40;99.90;;;;;;5042481;28;20560;-65
2022/06/15 09:05:06;;;;;;;5.80;2.88;;;24.40;99.90;;;;;;5028112;28;20140;-65
2022/06/15 09:07:51;;;;;;;5.28;2.80;;;24.50;99.90;;;;;;5033117;28;20746;-65
2022/06/15 09:10:18;;;;;;;7.38;3.03;;;24.70;99.90;;;;;;5046652;28;20041;-65
2022/06/15 09:13:13;;;;;;;5.15;3.05;;;24.80;99.90;;;;;;5022773;28;20037;-65
2022/06/15 09:15:46;;;;;;;10.25;3.47;;;24.80;99.90;;;;;;5028356;28;20241;-65
2022/06/15 09:18:31;;;;;;;6.53;3.45;;;24.90;99.30;;;;;;5028871;28;20053;-65
2022/06/15 09:21:14;;;;;;;9.00;3.15;;;24.90;98.40;;;;;;5027236;28;20045;-65
2022/06/15 09:23:51;;;;;;;8.23;3.30;;;25.00;98.20;;;;;;5025160;28;20076;-65
2022/06/15 09:26:49;;;;;;;7.43;3.42;;;25.10;97.70;;;;;;5020006;28;20050;-65
2022/06/15 09:29:20;;;;;;;6.65;3.05;;;25.20;97.40;;;;;;5029107;28;20608;-65
2022/06/15 09:32:06;;;;;;;5.93;2.85;;;25.40;96.90;;;;;;5027520;28;20120;-64
2022/06/15 09:34:38;;;;;;;5.13;2.55;;;25.70;95.80;;;;;;5014043;28;20049;-65
2022/06/15 09:37:15;;;;;;;;;;;25.70;94.80;;;;;;5034532;28;20524;-65
2022/06/15 09:39:43;;;;;;;5.75;3.00;;;25.80;94.90;;;;;;5028482;28;20018;-64
2022/06/15 09:42:21;;;;;;;4.90;2.90;;;26.00;94.60;;;;;;5028369;28;20161;-63
2022/06/15 09:45:16;;;;;;;7.28;2.58;;;26.10;93.90;;;;;;5031212;28;20052;-63
2022/06/15 09:47:58;;;;;;;4.90;2.67;;;26.20;93.40;;;;;;5025092;28;20080;-65
2022/06/15 09:50:38;;;;;;;6.38;2.70;;;26.40;93.40;;;;;;5037047;28;20120;-65
2022/06/15 09:53:22;;;;;;;6.25;2.80;;;26.60;92.80;;;;;;5035439;28;20570;-64
2022/06/15 09:55:56;;;;;;;6.65;2.88;;;26.70;92.40;;;;;;5038574;28;20042;-65
2022/06/15 09:58:51;;;;;;;6.15;2.22;;;26.80;91.40;;;;;;5038259;28;20045;-66
2022/06/15 10:01:20;;;;;;;7.38;4.53;;;27.00;90.70;;;;;;5043404;28;20496;-65
2022/06/15 10:03:51;;;;;;;7.05;3.25;;;27.00;90.20;;;;;;5033228;28;20122;-66
2022/06/15 10:06:25;;;;;;;7.45;3.22;;;27.20;90.10;;;;;;5033307;28;20045;-64
2022/06/15 10:08:54;;;;;;;5.78;2.70;;;27.30;89.20;;;;;;5036005;28;20455;-65
2022/06/15 10:11:29;;;;;;;5.68;2.40;;;27.40;87.10;;;;;;5028432;28;20143;-65
2022/06/15 10:13:57;;;;;;;4.53;2.42;;;27.20;87.00;;;;;;5028512;28;20132;-65
2022/06/15 10:16:28;;;;;;;5.95;2.42;;;27.40;86.60;;;;;;5035527;28;20045;-65
2022/06/15 10:19:05;;;;;;;7.63;2.55;;;27.50;85.80;;;;;;5044494;28;20056;-65
2022/06/15 10:21:35;;;;;;;6.53;3.38;;;27.60;85.40;;;;;;5014267;28;20599;-65
2022/06/15 10:24:21;;;;;;;8.55;3.65;;;27.90;85.20;;;;;;5034998;28;20507;-65
2022/06/15 10:27:12;;;;;;;5.72;2.38;;;28.00;84.90;;;;;;5034160;28;20288;-65
2022/06/15 10:29:40;;;;;;;5.35;2.67;;;28.30;85.00;;;;;;5028226;28;20048;-65
2022/06/15 10:32:10;;;;;;;4.97;3.05;;;28.50;83.30;;;;;;5027532;28;20052;-65
2022/06/15 10:34:41;;;;;;;6.97;2.70;;;28.60;82.60;;;;;;5027339;28;20436;-65
2022/06/15 10:37:34;;;;;;;7.68;2.85;;;28.80;82.20;;;;;;5027992;28;20330;-65
2022/06/15 10:40:17;;;;;;;4.85;2.53;;;29.00;81.80;;;;;;5027915;28;20136;-65
2022/06/15 10:42:51;;;;;;;5.75;2.42;;;29.00;81.60;;;;;;5029919;28;20558;-65
2022/06/15 10:45:34;;;;;;;4.63;2.78;;;28.90;81.90;;;;;;5017546;28;20136;-65
2022/06/15 10:48:06;;;;;;;6.63;2.65;;;28.70;81.50;;;;;;5027429;28;20164;-64
2022/06/15 10:51:05;;;;;;;7.43;2.80;;;28.90;80.80;;;;;;5035998;28;20034;-65
2022/06/15 10:53:41;;;;;;;8.15;2.38;;;29.20;80.00;;;;;;5032109;28;20119;-65
2022/06/15 11:02:22;;;;;;;5.05;2.40;;;30.20;77.50;;;;;;5039663;28;20402;-65
2022/06/15 11:04:51;;;;;;;5.53;2.50;;;30.50;76.20;;;;;;5044151;28;20049;-65
2022/06/15 11:07:22;;;;;;;5.40;2.58;;;30.40;74.50;;;;;;5044803;28;20049;-66
2022/06/15 11:09:54;;;;;;;7.03;3.00;;;30.40;74.40;;;;;;5037079;28;20037;-65
2022/06/15 11:12:39;;;;;;;8.88;2.90;;;30.70;74.20;;;;;;5034948;28;20499;-64
2022/06/15 11:15:14;;;;;;;7.53;2.30;;;30.80;73.80;;;;;;5023688;28;20497;-65
2022/06/15 11:18:06;;;;;;;4.32;2.05;;;31.30;72.90;;;;;;5031772;28;20037;-65
2022/06/15 11:20:33;;;;;;;4.07;2.00;;;31.50;71.50;;;;;;5022158;28;20034;-64
2022/06/15 11:23:42;;;;;;;4.13;1.80;;;31.40;68.60;;;;;;5025545;28;20056;-64
2022/06/15 11:26:52;;;;;;;4.82;2.17;;;31.60;68.50;;;;;;5053983;28;20122;-65
2022/06/15 11:29:38;;;;;;;5.95;2.22;;;32.00;68.50;;;;;;5049738;28;20519;-65
2022/06/15 11:32:35;;;;;;;4.97;2.05;;;32.60;67.60;;;;;;5043253;28;20189;-64
2022/06/15 11:35:11;;;;;;;7.07;2.72;;;32.20;66.70;;;;;;5034819;28;20551;-65
2022/06/15 11:37:58;;;;;;;4.75;2.60;;;32.30;67.10;;;;;;5038664;28;20110;-65
2022/06/15 11:40:46;;;;;;;4.38;2.35;;;32.60;66.50;;;;;;5047602;28;20049;-65
2022/06/15 11:43:29;;;;;;;5.43;2.20;;;33.00;65.60;;;;;;5055442;28;20227;-64
2022/06/15 11:46:23;;;;;;;6.38;2.30;;;33.10;64.30;;;;;;5037286;28;20055;-65
2022/06/15 11:49:13;;;;;;;4.32;2.10;;;33.40;63.40;;;;;;5059690;28;20052;-65
2022/06/15 11:52:02;;;;;;;4.18;1.90;;;33.60;62.20;;;;;;5051295;28;20052;-65
2022/06/15 11:54:30;;;;;;;6.68;2.00;;;33.80;60.80;;;;;;5050955;28;20045;-65
2022/06/15 11:57:21;;;;;;;4.28;2.17;;;34.20;60.40;;;;;;5059169;28;20473;-65
2022/06/15 11:59:57;;;;;;;4.07;1.60;;;34.50;59.60;;;;;;5057022;28;20096;-65
2022/06/15 12:02:59;;;;;;;5.53;1.90;;;34.80;58.70;;;;;;5041209;28;20057;-65
2022/06/15 12:06:01;;;;;;;3.90;1.83;;;34.50;58.50;;;;;;5031717;28;20825;-65
2022/06/15 12:08:38;;;;;;;2.75;1.75;;;34.30;58.20;;;;;;5035232;28;20053;-65
2022/06/15 12:14:42;;;;;;;3.88;1.45;;;34.30;55.70;;;;;;5044519;28;20056;-65
2022/06/15 12:17:20;;;;;;;3.63;1.40;;;34.70;55.70;;;;;;5034749;28;20145;-65
2022/06/15 12:20:07;;;;;;;2.97;1.17;;;34.60;53.70;;;;;;5038262;28;20496;-66
2022/06/15 12:22:53;;;;;;;3.83;1.20;;;34.60;52.90;;;;;;5036381;28;20572;-65
2022/06/15 12:26:16;;;;;;;3.58;1.35;;;34.30;53.00;;;;;;5033313;28;20064;-64
2022/06/15 12:28:55;;;;;;;5.45;2.15;;;35.00;54.10;;;;;;4930656;29;20055;-65
2022/06/15 12:35:03;;;;;;;4.22;1.70;;;35.60;53.70;;;;;;4926862;29;20499;-65
2022/06/15 12:37:56;;;;;;;2.58;1.63;;;36.40;53.30;;;;;;4934029;29;20055;-65
2022/06/15 12:40:32;;;;;;;4.18;1.65;;;36.20;52.60;;;;;;4936781;29;20135;-65
2022/06/15 12:43:25;;;;;;;4.05;1.58;;;36.40;52.60;;;;;;4942565;29;20395;-64
2022/06/15 12:46:01;;;;;;;3.42;1.50;;;37.10;52.40;;;;;;4934138;29;20066;-64
2022/06/15 12:48:53;;;;;;;3.47;1.65;;;37.20;51.30;;;;;;4930437;29;20146;-65
2022/06/15 12:51:23;;;;;;;2.58;1.52;;;36.90;51.00;;;;;;4935310;29;20662;-65
2022/06/15 12:53:56;;;;;;;3.42;1.73;;;36.90;51.40;;;;;;4948547;28;20438;-65
2022/06/15 12:56:31;;;;;;;3.95;1.77;;;37.50;51.40;;;;;;4947247;28;20051;-66
2022/06/15 12:59:22;;;;;;;2.83;1.58;;;37.90;51.00;;;;;;4955264;28;20115;-66
2022/06/15 13:02:05;;;;;;;6.30;1.50;;;37.90;51.10;;;;;;4980298;28;20078;-64
2022/06/15 13:05:05;;;;;;;3.60;1.42;;;36.80;50.10;;;;;;5045499;28;20063;-64
2022/06/15 13:07:35;;;;;;;4.97;1.90;;;35.90;50.70;;;;;;5025990;28;20077;-65
2022/06/15 13:10:13;;;;;;;5.63;1.40;;;35.90;51.30;;;;;;5044556;28;20068;-66
2022/06/15 13:12:56;;;;;;;3.65;1.48;;;36.20;50.80;;;;;;5041820;28;20188;-65
2022/06/15 13:15:35;;;;;;;3.70;2.08;;;36.60;50.80;;;;;;5032051;28;20144;-64
2022/06/15 13:18:09;;;;;;;3.88;2.25;;;36.90;50.00;;;;;;5030237;28;20045;-64
2022/06/15 13:20:45;;;;;;;3.05;1.52;;;36.60;50.20;;;;;;5027211;28;20052;-65
2022/06/15 13:23:31;;;;;;;4.57;1.50;;;36.40;50.50;;;;;;5046908;28;20095;-64
2022/06/15 13:26:15;;;;;;;6.22;1.52;;;36.30;50.50;;;;;;5033173;28;20057;-67
2022/06/15 13:28:58;;;;;;;6.47;1.80;;;36.10;50.20;;;;;;5020238;28;20199;-64
2022/06/15 13:31:44;;;;;;;3.38;1.80;;;36.10;50.80;;;;;;5026578;28;20131;-64
2022/06/15 13:34:34;;;;;;;6.85;2.70;;;36.70;50.10;;;;;;5019145;28;20045;-65
2022/06/15 13:37:18;;;;;;;4.43;2.55;;;37.30;49.80;;;;;;5026526;28;20080;-65
2022/06/15 13:39:47;;;;;;;4.70;1.60;;;38.60;48.80;;;;;;5026818;28;20444;-65
2022/06/15 13:42:40;;;;;;;4.30;1.80;;;39.10;47.30;;;;;;5026006;28;20477;-66
2022/06/15 13:45:11;;;;;;;5.60;3.00;;;38.30;47.40;;;;;;5008193;28;20499;-65
2022/06/15 13:47:38;;;;;;;;;;;38.60;47.90;;;;;;5014629;28;20532;-65
2022/06/15 13:50:10;;;;;;;3.22;1.60;;;39.10;47.50;;;;;;5032265;28;20034;-65
2022/06/15 13:52:40;;;;;;;3.30;1.70;;;40.10;47.20;;;;;;5029509;28;20427;-65